Time;durP1;ratioP1;P1;durP2;ratioP2;P2;SDS_P1;SDS_P2;PMS_P1;PMS_P2;Temp;Humidity;BMP_temperature;BMP_pressure;BME280_temperature;BME280_humidity;BME280_pressure;Samples;Min_cycle;Max_cycle;Signal;HPM_P1;HPM_P2
2023/08/27 00:02:21;;;;;;;4.82;2.75;;;;;;;23.10;nan;100004.22;4985620;28;20037;-78
2023/08/27 00:04:46;;;;;;;5.88;2.50;;;;;;;23.07;nan;99998.34;4990250;28;20033;-78
2023/08/27 00:07:12;;;;;;;6.13;2.80;;;;;;;23.08;nan;99986.78;4983411;28;20030;-78
2023/08/27 00:09:37;;;;;;;5.28;2.55;;;;;;;23.07;nan;99982.47;4985298;28;20041;-77
2023/08/27 00:12:03;;;;;;;4.15;2.88;;;;;;;23.07;nan;99982.47;4986175;28;20026;-78
2023/08/27 00:14:30;;;;;;;5.93;2.60;;;;;;;23.07;nan;99990.41;4987727;28;20038;-77
2023/08/27 00:16:55;;;;;;;4.38;2.67;;;;;;;23.03;nan;99997.81;4983460;28;20614;-78
2023/08/27 00:19:21;;;;;;;3.28;2.47;;;;;;;23.04;nan;100006.59;4966124;28;20026;-78
2023/08/27 00:21:48;;;;;;;2.70;2.50;;;;;;;23.01;nan;100000.56;4983511;28;20069;-78
2023/08/27 00:24:13;;;;;;;2.83;2.63;;;;;;;23.09;nan;99994.59;4981554;28;20096;-77
2023/08/27 00:26:38;;;;;;;3.28;2.60;;;;;;;23.12;nan;100004.06;4990525;28;20038;-78
2023/08/27 00:29:04;;;;;;;3.35;2.30;;;;;;;23.11;nan;100016.47;4983039;28;20809;-79
2023/08/27 00:31:29;;;;;;;2.65;2.40;;;;;;;23.09;nan;100010.47;4984978;28;20037;-79
2023/08/27 00:33:55;;;;;;;3.47;2.28;;;;;;;23.08;nan;100008.78;4986525;28;20032;-79
2023/08/27 00:36:20;;;;;;;2.88;2.65;;;;;;;23.08;nan;100011.44;4984392;28;20604;-80
2023/08/27 00:38:45;;;;;;;3.80;2.33;;;;;;;23.06;nan;100016.06;4983169;28;20038;-80
2023/08/27 00:41:11;;;;;;;4.05;2.80;;;;;;;23.04;nan;100012.72;4983921;28;20022;-79
2023/08/27 00:43:36;;;;;;;5.22;2.60;;;;;;;23.06;nan;100012.56;4988955;28;20037;-79
2023/08/27 00:46:02;;;;;;;2.92;2.17;;;;;;;23.04;nan;100027.78;4985230;28;20033;-79
2023/08/27 00:48:28;;;;;;;4.00;2.42;;;;;;;23.04;nan;100031.25;4982236;28;20557;-79
2023/08/27 00:50:53;;;;;;;3.35;2.72;;;;;;;23.04;nan;100019.81;4983953;28;20042;-80
2023/08/27 00:53:19;;;;;;;3.67;2.50;;;;;;;23.04;nan;100022.47;4987224;28;20058;-78
2023/08/27 00:55:44;;;;;;;2.88;2.63;;;;;;;23.03;nan;100019.00;4983762;28;20148;-79
2023/08/27 00:58:13;;;;;;;3.47;2.60;;;;;;;23.02;nan;100039.31;4982073;28;20127;-79
2023/08/27 01:00:39;;;;;;;2.93;2.20;;;;;;;23.03;nan;100019.00;4981845;28;20041;-78
2023/08/27 01:03:05;;;;;;;2.70;2.28;;;;;;;23.01;nan;100019.13;4986727;28;20678;-77
2023/08/27 01:05:30;;;;;;;3.30;2.50;;;;;;;23.01;nan;100020.94;4984983;28;20022;-77
2023/08/27 01:08:12;;;;;;;3.00;2.58;;;;;;;22.99;nan;100018.44;4984466;28;20036;-77
2023/08/27 01:10:55;;;;;;;4.95;2.75;;;;;;;23.01;nan;100026.22;4983891;28;20403;-77
2023/08/27 01:13:29;;;;;;;4.45;2.75;;;;;;;23.01;nan;100016.47;4985381;28;20030;-77
2023/08/27 01:15:58;;;;;;;3.00;2.47;;;;;;;23.00;nan;100003.38;4987056;28;20097;-77
2023/08/27 01:18:23;;;;;;;6.75;2.85;;;;;;;22.99;nan;100004.34;4982053;28;20036;-78
2023/08/27 01:20:49;;;;;;;2.83;2.22;;;;;;;22.99;nan;100002.53;4982349;28;20065;-77
2023/08/27 01:23:14;;;;;;;4.10;2.70;;;;;;;23.00;nan;100003.38;4984361;28;20030;-77
2023/08/27 01:25:43;;;;;;;5.47;3.30;;;;;;;23.01;nan;99995.28;4985283;28;20621;-78
2023/08/27 01:28:13;;;;;;;2.70;2.30;;;;;;;23.01;nan;99997.94;4980457;28;20170;-77
2023/08/27 01:30:44;;;;;;;3.90;2.58;;;;;;;22.99;nan;100002.53;4981345;28;20533;-77
2023/08/27 01:33:15;;;;;;;2.92;2.70;;;;;;;23.00;nan;99995.44;4985824;28;20026;-78
2023/08/27 01:35:40;;;;;;;3.00;2.60;;;;;;;22.96;nan;99976.34;4967055;28;20033;-78
2023/08/27 01:38:06;;;;;;;3.55;2.70;;;;;;;22.95;nan;99979.97;4981062;28;20100;-78
2023/08/27 01:40:31;;;;;;;3.63;2.95;;;;;;;22.94;nan;99980.13;4981753;28;20841;-78
2023/08/27 01:42:56;;;;;;;3.75;3.10;;;;;;;22.93;nan;99992.53;4985487;28;20034;-79
2023/08/27 01:45:22;;;;;;;4.55;2.65;;;;;;;22.91;nan;99991.81;4965904;28;20046;-78
2023/08/27 01:47:47;;;;;;;2.90;2.70;;;;;;;22.90;nan;99989.31;4982091;28;20026;-78
2023/08/27 01:50:12;;;;;;;5.68;3.28;;;;;;;22.90;nan;99997.25;4982876;28;20133;-78
2023/08/27 01:52:38;;;;;;;5.00;3.17;;;;;;;22.91;nan;100001.56;4986446;28;20026;-78
2023/08/27 01:55:04;;;;;;;3.20;2.78;;;;;;;22.91;nan;100007.69;4985570;28;20054;-78
2023/08/27 01:57:30;;;;;;;4.55;2.90;;;;;;;22.93;nan;99983.75;4980804;28;20856;-78
2023/08/27 01:59:56;;;;;;;6.88;3.40;;;;;;;22.92;nan;99969.69;4980936;28;20180;-78
2023/08/27 02:02:21;;;;;;;5.65;3.30;;;;;;;22.91;nan;99940.69;4968886;28;20029;-79
2023/08/27 02:04:47;;;;;;;4.90;3.20;;;;;;;22.89;nan;99930.25;4986300;28;20525;-79
2023/08/27 02:07:14;;;;;;;4.68;3.28;;;;;;;22.88;nan;99928.56;4981523;28;20414;-79
2023/08/27 02:09:39;;;;;;;4.88;3.28;;;;;;;22.87;nan;99924.25;4982184;28;20117;-79
2023/08/27 02:12:05;;;;;;;5.22;3.35;;;;;;;22.88;nan;99925.09;4980989;28;20447;-78
2023/08/27 02:14:31;;;;;;;3.53;2.80;;;;;;;22.86;nan;99938.44;4985166;28;20026;-79
2023/08/27 02:16:56;;;;;;;5.57;3.10;;;;;;;22.84;nan;99940.38;4983452;28;20525;-79
2023/08/27 02:19:22;;;;;;;3.35;3.05;;;;;;;22.84;nan;99944.84;4980977;28;20467;-79
2023/08/27 02:21:48;;;;;;;5.18;3.17;;;;;;;22.84;nan;99952.78;4983875;28;20085;-79
2023/08/27 02:24:13;;;;;;;4.72;3.28;;;;;;;22.83;nan;99951.13;4987128;28;20389;-78
2023/08/27 02:26:38;;;;;;;7.18;3.20;;;;;;;22.81;nan;99961.84;4983322;28;20440;-78
2023/08/27 02:29:04;;;;;;;3.15;2.58;;;;;;;22.82;nan;99952.09;4980939;28;20034;-79
2023/08/27 02:31:29;;;;;;;3.05;2.75;;;;;;;22.81;nan;99948.63;4984244;28;20037;-78
2023/08/27 02:33:55;;;;;;;4.25;3.03;;;;;;;22.81;nan;99948.63;4987180;28;20053;-77
2023/08/27 02:36:21;;;;;;;4.97;2.58;;;;;;;22.81;nan;99945.97;4966201;28;20033;-78
2023/08/27 02:38:46;;;;;;;4.18;2.80;;;;;;;22.83;nan;99949.31;4981253;28;20260;-80
2023/08/27 02:41:13;;;;;;;5.00;3.03;;;;;;;22.95;nan;99945.56;4982886;28;20743;-78
2023/08/27 02:43:38;;;;;;;3.00;2.70;;;;;;;23.05;nan;99950.84;4992317;28;20087;-79
2023/08/27 02:46:04;;;;;;;6.20;3.20;;;;;;;23.08;nan;99947.88;4982019;28;20034;-79
2023/08/27 02:48:30;;;;;;;6.78;2.92;;;;;;;23.11;nan;99944.13;4981218;28;20112;-79
2023/08/27 02:50:55;;;;;;;4.32;2.90;;;;;;;23.14;nan;99936.72;4982582;28;20526;-79
2023/08/27 02:53:20;;;;;;;5.97;3.05;;;;;;;23.15;nan;99941.06;4984220;28;20136;-80
2023/08/27 02:55:45;;;;;;;5.63;3.22;;;;;;;23.17;nan;99943.56;4978795;28;20102;-78
2023/08/27 02:58:11;;;;;;;3.25;2.95;;;;;;;23.18;nan;99959.28;4981487;28;20030;-79
2023/08/27 03:00:39;;;;;;;6.45;2.88;;;;;;;23.18;nan;99947.88;4982383;28;20026;-78
2023/08/27 03:03:05;;;;;;;8.32;2.80;;;;;;;23.19;nan;99945.06;4990280;28;20085;-79
2023/08/27 03:05:30;;;;;;;8.23;3.03;;;;;;;23.20;nan;99949.41;4993798;28;20431;-79
2023/08/27 03:07:56;;;;;;;5.13;2.97;;;;;;;23.21;nan;99939.66;4983532;28;20723;-79
2023/08/27 03:10:22;;;;;;;4.60;2.90;;;;;;;23.21;nan;99943.13;4981866;28;20054;-79
2023/08/27 03:12:47;;;;;;;6.53;2.80;;;;;;;23.22;nan;99938.66;4972806;28;21012;-77
2023/08/27 03:15:13;;;;;;;5.55;2.70;;;;;;;23.22;nan;99933.38;4982217;28;20482;-78
2023/08/27 03:17:41;;;;;;;5.68;2.75;;;;;;;23.23;nan;99945.63;4982989;28;20053;-77
2023/08/27 03:20:06;;;;;;;4.18;2.60;;;;;;;23.24;nan;99952.59;4979730;28;20136;-78
2023/08/27 03:22:32;;;;;;;2.85;2.40;;;;;;;23.24;nan;99956.06;4987614;28;20108;-78
2023/08/27 03:25:00;;;;;;;4.30;2.70;;;;;;;23.25;nan;99943.66;4988665;28;20133;-79
2023/08/27 03:27:25;;;;;;;4.90;2.53;;;;;;;23.26;nan;99938.25;4980428;28;20045;-78
2023/08/27 03:29:51;;;;;;;4.57;2.50;;;;;;;23.27;nan;99933.78;4980706;28;20561;-80
2023/08/27 03:32:16;;;;;;;3.42;2.40;;;;;;;23.30;nan;99922.03;4983315;28;20128;-81
2023/08/27 03:34:41;;;;;;;5.00;2.50;;;;;;;23.31;nan;99910.47;4981913;28;20060;-81
2023/08/27 03:37:07;;;;;;;6.25;2.50;;;;;;;23.31;nan;99900.69;4980617;28;20058;-80
2023/08/27 03:39:32;;;;;;;5.82;2.92;;;;;;;23.31;nan;99913.13;4982111;28;20044;-81
2023/08/27 03:41:57;;;;;;;4.25;2.75;;;;;;;23.31;nan;99927.19;4981931;28;20620;-80
2023/08/27 03:44:24;;;;;;;6.70;2.30;;;;;;;23.32;nan;99933.34;4993115;28;20041;-79
2023/08/27 03:46:49;;;;;;;3.90;2.75;;;;;;;23.32;nan;99934.19;4978661;28;20128;-79
2023/08/27 03:49:15;;;;;;;5.78;3.08;;;;;;;23.33;nan;99924.41;4981641;28;20066;-79
2023/08/27 03:51:40;;;;;;;3.10;2.67;;;;;;;23.32;nan;99928.88;4981713;28;21314;-79
2023/08/27 03:54:07;;;;;;;4.05;2.55;;;;;;;23.32;nan;99923.59;4973340;28;20030;-80
2023/08/27 03:56:32;;;;;;;5.75;2.60;;;;;;;23.33;nan;99935.84;4978103;28;20038;-79
2023/08/27 03:58:57;;;;;;;3.33;2.70;;;;;;;23.33;nan;99933.19;4980683;28;20755;-79
2023/08/27 04:01:23;;;;;;;6.53;2.63;;;;;;;23.34;nan;99941.97;4981024;28;20622;-79
2023/08/27 04:03:48;;;;;;;5.78;2.47;;;;;;;23.34;nan;99934.03;4983857;28;20084;-79
2023/08/27 04:06:13;;;;;;;4.57;2.53;;;;;;;23.35;nan;99927.75;4983414;28;20029;-79
2023/08/27 04:08:39;;;;;;;2.72;2.53;;;;;;;23.34;nan;99921.63;4981833;28;20080;-78
2023/08/27 04:11:04;;;;;;;2.80;2.22;;;;;;;23.36;nan;99914.34;4981411;28;20413;-79
2023/08/27 04:13:32;;;;;;;3.05;2.25;;;;;;;23.35;nan;99910.03;4990576;28;20140;-78
2023/08/27 04:16:03;;;;;;;3.13;2.38;;;;;;;23.36;nan;99909.06;4991241;28;20131;-78
2023/08/27 04:18:28;;;;;;;2.80;2.50;;;;;;;23.37;nan;99916.03;4981094;28;20537;-78
2023/08/27 04:20:54;;;;;;;7.88;2.80;;;;;;;23.38;nan;99911.56;4981324;28;20054;-78
2023/08/27 04:23:20;;;;;;;3.97;2.20;;;;;;;23.37;nan;99905.44;4982096;28;20034;-78
2023/08/27 04:25:45;;;;;;;5.70;2.45;;;;;;;23.38;nan;99909.75;4976687;28;20030;-78
2023/08/27 04:28:11;;;;;;;3.83;2.50;;;;;;;23.39;nan;99907.94;4980952;28;20066;-79
2023/08/27 04:30:36;;;;;;;2.63;2.05;;;;;;;23.38;nan;99901.81;4980425;28;20061;-79
2023/08/27 04:33:01;;;;;;;4.97;2.20;;;;;;;23.39;nan;99894.69;4989514;28;20101;-77
2023/08/27 04:35:27;;;;;;;2.97;2.42;;;;;;;23.38;nan;99891.22;4990796;28;20038;-79
2023/08/27 04:37:52;;;;;;;3.33;2.40;;;;;;;23.40;nan;99891.06;4980058;28;20026;-79
2023/08/27 04:40:17;;;;;;;2.33;2.05;;;;;;;23.39;nan;99890.22;4982205;28;20034;-80
2023/08/27 04:42:43;;;;;;;3.78;2.40;;;;;;;23.43;nan;99893.44;4987500;28;20117;-78
2023/08/27 04:45:09;;;;;;;5.90;2.88;;;;;;;23.44;nan;99893.28;4983602;28;20037;-79
2023/08/27 04:47:35;;;;;;;4.30;2.53;;;;;;;23.47;nan;99890.31;4983150;28;20026;-79
2023/08/27 04:50:00;;;;;;;5.15;2.33;;;;;;;23.48;nan;99891.16;4984874;28;20120;-78
2023/08/27 04:52:25;;;;;;;9.13;2.60;;;;;;;23.47;nan;99892.97;4987782;28;20038;-79
2023/08/27 04:54:51;;;;;;;2.97;2.75;;;;;;;23.48;nan;99894.66;4983232;28;20038;-79
2023/08/27 04:57:16;;;;;;;3.35;2.38;;;;;;;23.48;nan;99892.00;4982129;28;20037;-79
2023/08/27 04:59:41;;;;;;;4.35;2.35;;;;;;;23.48;nan;99897.31;4984648;28;20037;-79
2023/08/27 05:02:07;;;;;;;4.28;2.10;;;;;;;23.49;nan;99887.53;4965924;28;20526;-79
2023/08/27 05:04:32;;;;;;;2.45;2.05;;;;;;;23.50;nan;99894.50;4982769;28;20826;-80
2023/08/27 05:06:57;;;;;;;5.22;2.70;;;;;;;23.49;nan;99898.16;4985622;28;20559;-80
2023/08/27 05:09:23;;;;;;;5.75;2.63;;;;;;;23.48;nan;99901.75;4983920;28;20489;-80
2023/08/27 05:11:48;;;;;;;5.90;2.47;;;;;;;23.50;nan;99908.59;4984532;28;20188;-80
2023/08/27 05:14:14;;;;;;;3.80;2.75;;;;;;;23.49;nan;99898.97;4988068;28;20034;-79
2023/08/27 05:16:39;;;;;;;11.93;2.63;;;;;;;23.50;nan;99892.69;4989227;28;20045;-78
2023/08/27 05:19:04;;;;;;;5.40;2.65;;;;;;;23.49;nan;99901.63;4983906;28;20506;-79
2023/08/27 05:21:30;;;;;;;5.15;2.50;;;;;;;23.50;nan;99916.53;4983934;28;20757;-79
2023/08/27 05:23:55;;;;;;;3.55;2.35;;;;;;;23.51;nan;99901.47;4989695;28;20030;-78
2023/08/27 05:26:20;;;;;;;2.80;2.20;;;;;;;23.50;nan;99890.03;4981857;28;20482;-79
2023/08/27 05:28:46;;;;;;;2.50;2.30;;;;;;;23.51;nan;99885.56;4985423;28;20030;-79
2023/08/27 05:31:11;;;;;;;10.52;2.88;;;;;;;23.51;nan;99880.28;4984097;28;20588;-78
2023/08/27 05:33:36;;;;;;;5.70;2.08;;;;;;;23.51;nan;99886.41;4986668;28;20063;-79
2023/08/27 05:36:02;;;;;;;4.75;2.28;;;;;;;23.50;nan;99890.03;4990668;28;20125;-78
2023/08/27 05:38:27;;;;;;;4.20;2.30;;;;;;;23.51;nan;99894.34;4983409;28;20719;-78
2023/08/27 05:40:52;;;;;;;3.97;2.35;;;;;;;23.50;nan;99895.34;4985066;28;20051;-78
2023/08/27 05:43:18;;;;;;;4.75;2.30;;;;;;;23.51;nan;99894.34;4985005;28;20486;-78
2023/08/27 05:45:43;;;;;;;2.53;2.30;;;;;;;23.52;nan;99881.94;4994074;28;20030;-78
2023/08/27 05:48:08;;;;;;;5.18;2.70;;;;;;;23.51;nan;99889.06;4984526;28;20790;-78
2023/08/27 05:50:34;;;;;;;6.07;2.15;;;;;;;23.51;nan;99881.09;4982477;28;20065;-77
2023/08/27 05:53:00;;;;;;;3.33;2.25;;;;;;;23.52;nan;99876.63;4993489;28;20123;-78
2023/08/27 05:55:26;;;;;;;2.92;1.95;;;;;;;23.51;nan;99881.09;4989222;28;20444;-77
2023/08/27 05:57:51;;;;;;;3.42;2.17;;;;;;;23.52;nan;99877.47;4984900;28;20021;-77
2023/08/27 06:00:17;;;;;;;4.65;2.33;;;;;;;23.52;nan;99866.88;4984818;28;20150;-77
2023/08/27 06:02:42;;;;;;;3.35;2.30;;;;;;;23.52;nan;99872.16;4980584;28;20090;-78
2023/08/27 06:05:09;;;;;;;2.58;2.38;;;;;;;23.52;nan;99868.69;4976247;28;20447;-78
2023/08/27 06:07:34;;;;;;;3.38;2.20;;;;;;;23.51;nan;99867.84;4984098;28;20032;-78
2023/08/27 06:09:59;;;;;;;4.85;2.05;;;;;;;23.52;nan;99877.47;4984030;28;20033;-78
2023/08/27 06:12:25;;;;;;;4.22;2.20;;;;;;;23.53;nan;99888.91;4987917;28;20030;-78
2023/08/27 06:14:50;;;;;;;4.95;2.38;;;;;;;23.52;nan;99884.59;4970572;28;20034;-79
2023/08/27 06:17:16;;;;;;;2.70;1.90;;;;;;;23.53;nan;99880.94;4981900;28;20030;-78
2023/08/27 06:19:41;;;;;;;2.03;1.90;;;;;;;23.53;nan;99883.59;4983607;28;20180;-79
2023/08/27 06:22:06;;;;;;;3.45;2.10;;;;;;;23.53;nan;99908.28;4981212;28;20030;-78
2023/08/27 06:24:32;;;;;;;2.70;1.88;;;;;;;23.54;nan;99922.34;4988974;28;20037;-78
2023/08/27 06:26:57;;;;;;;3.10;2.15;;;;;;;23.53;nan;99918.88;4985493;28;20054;-78
2023/08/27 06:29:23;;;;;;;3.35;1.90;;;;;;;23.53;nan;99905.63;4980971;28;20108;-78
2023/08/27 06:31:49;;;;;;;2.97;1.92;;;;;;;23.53;nan;99905.63;4983925;28;20136;-78
2023/08/27 06:34:14;;;;;;;4.63;2.58;;;;;;;23.54;nan;99917.06;4990562;28;20030;-79
2023/08/27 06:36:40;;;;;;;2.95;2.00;;;;;;;23.55;nan;99916.09;4989194;28;20168;-78
2023/08/27 06:39:05;;;;;;;4.05;2.15;;;;;;;23.53;nan;99924.19;4983353;28;20064;-78
2023/08/27 06:41:30;;;;;;;3.33;1.85;;;;;;;23.55;nan;99926.69;4984098;28;20754;-78
2023/08/27 06:43:56;;;;;;;3.67;2.28;;;;;;;23.54;nan;99925.88;4981100;28;20030;-79
2023/08/27 06:46:21;;;;;;;2.33;2.13;;;;;;;23.56;nan;99923.06;4984666;28;20061;-79
2023/08/27 06:48:46;;;;;;;2.17;1.98;;;;;;;23.54;nan;99915.28;4981067;28;20040;-78
2023/08/27 06:51:12;;;;;;;2.38;2.17;;;;;;;23.56;nan;99914.28;4981615;28;20034;-78
2023/08/27 06:53:37;;;;;;;4.22;2.15;;;;;;;23.57;nan;99915.94;4988449;28;20424;-78
2023/08/27 06:56:02;;;;;;;3.75;1.90;;;;;;;23.57;nan;99922.06;4973568;28;20041;-78
2023/08/27 06:58:29;;;;;;;2.92;2.08;;;;;;;23.56;nan;99925.72;4981873;28;20136;-79
2023/08/27 07:00:54;;;;;;;3.80;2.03;;;;;;;23.57;nan;99930.03;4965014;28;20104;-79
2023/08/27 07:03:20;;;;;;;2.10;1.77;;;;;;;23.58;nan;99923.75;4990449;28;20862;-79
2023/08/27 07:05:45;;;;;;;3.28;1.85;;;;;;;23.58;nan;99928.22;4984876;28;20874;-78
2023/08/27 07:08:11;;;;;;;2.65;2.28;;;;;;;23.59;nan;99921.94;4984058;28;20541;-78
2023/08/27 07:10:37;;;;;;;2.63;2.10;;;;;;;23.59;nan;99911.31;4966686;28;20057;-80
2023/08/27 07:13:04;;;;;;;3.15;2.25;;;;;;;23.59;nan;99908.66;4983846;28;20398;-78
2023/08/27 07:15:29;;;;;;;1.90;1.80;;;;;;;23.59;nan;99911.31;4983815;28;20030;-78
2023/08/27 07:17:55;;;;;;;3.45;1.90;;;;;;;23.59;nan;99903.38;4982020;28;20034;-78
2023/08/27 07:20:20;;;;;;;2.38;2.08;;;;;;;23.61;nan;99898.78;4982410;28;20029;-79
2023/08/27 07:22:46;;;;;;;3.92;2.17;;;;;;;23.60;nan;99892.66;4988079;28;20025;-79
2023/08/27 07:25:11;;;;;;;3.67;2.10;;;;;;;23.60;nan;99883.84;4971838;28;20026;-79
2023/08/27 07:27:37;;;;;;;4.28;2.20;;;;;;;23.61;nan;99890.84;4981850;28;20053;-79
2023/08/27 07:30:04;;;;;;;4.60;2.25;;;;;;;23.61;nan;99880.22;4965240;28;20042;-79
2023/08/27 07:32:30;;;;;;;4.32;1.85;;;;;;;23.61;nan;99886.38;4986345;28;20068;-79
2023/08/27 07:34:55;;;;;;;3.28;1.98;;;;;;;23.64;nan;99896.69;4994043;28;20136;-79
2023/08/27 07:37:22;;;;;;;3.17;1.80;;;;;;;23.68;nan;99918.44;4981581;28;20560;-78
2023/08/27 07:39:47;;;;;;;6.75;2.40;;;;;;;23.66;nan;99925.72;4981358;28;20160;-76
2023/08/27 07:42:12;;;;;;;5.50;2.50;;;;;;;23.66;nan;99915.94;4981089;28;20898;-77
2023/08/27 07:44:38;;;;;;;5.10;2.00;;;;;;;23.67;nan;99922.06;4993286;28;20049;-77
2023/08/27 07:47:03;;;;;;;4.38;1.92;;;;;;;23.66;nan;99931.84;4983300;28;20037;-80
2023/08/27 07:49:28;;;;;;;7.75;1.98;;;;;;;23.68;nan;99937.00;4981311;28;20113;-80
2023/08/27 07:51:54;;;;;;;3.35;1.88;;;;;;;23.67;nan;99937.97;4979865;28;20036;-76
2023/08/27 07:54:20;;;;;;;3.15;2.05;;;;;;;23.68;nan;99939.63;4988369;28;20083;-76
2023/08/27 07:56:45;;;;;;;6.45;2.80;;;;;;;23.66;nan;99942.44;4985804;28;20038;-76
2023/08/27 07:59:10;;;;;;;5.53;2.38;;;;;;;23.65;nan;99955.81;4979671;28;20038;-75
2023/08/27 08:01:36;;;;;;;3.88;1.90;;;;;;;23.66;nan;99968.13;4963625;28;20688;-74
2023/08/27 08:04:01;;;;;;;7.75;2.30;;;;;;;23.65;nan;99955.81;4986264;28;20057;-76
2023/08/27 08:06:27;;;;;;;4.05;1.90;;;;;;;23.64;nan;99972.72;4979915;28;20105;-76
2023/08/27 08:08:52;;;;;;;4.25;2.00;;;;;;;23.65;nan;99974.38;4982607;28;20815;-74
2023/08/27 08:11:18;;;;;;;4.97;1.92;;;;;;;23.63;nan;99966.56;4980911;28;20038;-76
2023/08/27 08:13:45;;;;;;;6.47;2.03;;;;;;;23.65;nan;99971.72;4990298;28;20804;-76
2023/08/27 08:16:10;;;;;;;4.47;2.25;;;;;;;23.63;nan;99966.56;4983677;28;20120;-77
2023/08/27 08:18:36;;;;;;;8.30;3.05;;;;;;;23.62;nan;99956.09;4985924;28;20813;-78
2023/08/27 08:21:02;;;;;;;8.60;2.40;;;;;;;23.65;nan;99958.47;4985023;28;20062;-76
2023/08/27 08:23:27;;;;;;;2.28;2.00;;;;;;;23.64;nan;99960.28;4987522;28;20120;-75
2023/08/27 08:25:52;;;;;;;3.92;1.90;;;;;;;23.65;nan;99971.72;4984667;28;20034;-75
2023/08/27 08:28:18;;;;;;;7.78;2.10;;;;;;;23.65;nan;99971.72;4984556;28;20046;-75
2023/08/27 08:30:48;;;;;;;2.42;1.88;;;;;;;23.65;nan;99959.31;4984051;28;20119;-75
2023/08/27 08:33:14;;;;;;;5.07;2.92;;;;;;;23.65;nan;99961.13;4981300;28;20030;-78
2023/08/27 08:35:40;;;;;;;2.58;1.80;;;;;;;23.64;nan;99955.00;4979272;28;20246;-79
2023/08/27 08:38:05;;;;;;;4.45;2.00;;;;;;;23.65;nan;99961.13;4983567;28;20042;-79
2023/08/27 08:40:38;;;;;;;4.22;2.15;;;;;;;23.66;nan;99979.53;4983850;28;20746;-78
2023/08/27 08:43:03;;;;;;;2.78;2.00;;;;;;;23.67;nan;99990.97;4985661;28;20115;-78
2023/08/27 08:45:37;;;;;;;2.30;2.10;;;;;;;23.67;nan;99997.13;4966239;28;20479;-78
2023/08/27 08:48:05;;;;;;;3.10;1.90;;;;;;;23.68;nan;100004.06;4983868;28;20034;-78
2023/08/27 08:50:35;;;;;;;4.35;1.80;;;;;;;23.68;nan;100003.25;4985725;28;20029;-79
2023/08/27 08:53:13;;;;;;;3.63;1.92;;;;;;;23.67;nan;99998.94;4988395;28;20034;-78
2023/08/27 08:55:41;;;;;;;3.00;2.20;;;;;;;23.67;nan;99990.97;4986819;28;20041;-79
2023/08/27 08:58:11;;;;;;;4.38;2.22;;;;;;;23.66;nan;99981.38;4983726;28;20037;-79
2023/08/27 09:00:36;;;;;;;3.03;2.00;;;;;;;23.67;nan;99972.44;4984835;28;20034;-79
2023/08/27 09:03:03;;;;;;;6.47;2.50;;;;;;;23.66;nan;99974.25;4989823;28;20034;-79
2023/08/27 09:05:29;;;;;;;4.50;1.90;;;;;;;23.67;nan;99975.91;4990000;28;20119;-79
2023/08/27 09:07:55;;;;;;;3.30;1.90;;;;;;;23.66;nan;99974.25;4985076;28;20053;-78
2023/08/27 09:10:21;;;;;;;2.00;1.80;;;;;;;23.67;nan;99969.78;4985058;28;20168;-79
2023/08/27 09:12:47;;;;;;;2.88;2.00;;;;;;;23.66;nan;99963.66;4986775;28;20367;-79
2023/08/27 09:15:12;;;;;;;2.75;1.80;;;;;;;23.65;nan;99977.84;4979336;28;20038;-78
2023/08/27 09:17:38;;;;;;;2.10;1.95;;;;;;;23.65;nan;99972.56;4983150;28;20028;-79
2023/08/27 09:20:04;;;;;;;3.83;2.10;;;;;;;23.66;nan;99973.41;4983012;28;20133;-76
2023/08/27 09:22:30;;;;;;;2.15;2.05;;;;;;;23.65;nan;99971.72;4988053;28;20550;-77
2023/08/27 09:24:55;;;;;;;2.70;2.30;;;;;;;23.65;nan;99969.06;4982519;28;20034;-73
2023/08/27 09:27:20;;;;;;;2.50;1.80;;;;;;;23.66;nan;99957.50;4983310;28;20076;-73
2023/08/27 09:29:46;;;;;;;3.85;1.90;;;;;;;23.66;nan;99945.09;4982898;28;20034;-78
2023/08/27 09:32:20;;;;;;;2.42;1.90;;;;;;;23.67;nan;99938.81;4986479;28;20117;-78
2023/08/27 09:34:46;;;;;;;4.72;2.25;;;;;;;23.70;nan;99935.00;4979136;28;20038;-78
2023/08/27 09:37:12;;;;;;;3.63;2.15;;;;;;;23.68;nan;99929.88;4984801;28;20026;-78
2023/08/27 09:39:39;;;;;;;2.40;1.90;;;;;;;23.69;nan;99925.41;4984022;28;20044;-77
2023/08/27 09:42:05;;;;;;;2.97;2.13;;;;;;;23.70;nan;99927.91;4986115;28;20041;-77
2023/08/27 09:44:30;;;;;;;2.83;2.25;;;;;;;23.70;nan;99919.09;4981117;28;20821;-76
2023/08/27 09:47:03;;;;;;;4.60;2.15;;;;;;;23.71;nan;99903.09;4983958;28;20532;-78
2023/08/27 09:49:28;;;;;;;4.05;2.20;;;;;;;23.69;nan;99902.38;4984007;28;20026;-77
2023/08/27 09:51:56;;;;;;;3.25;2.30;;;;;;;23.68;nan;99907.84;4983117;28;20061;-78
2023/08/27 09:54:28;;;;;;;3.03;2.10;;;;;;;23.67;nan;99924.72;4991406;28;20033;-78
2023/08/27 09:56:59;;;;;;;5.03;2.20;;;;;;;23.65;nan;99924.00;4984445;28;20049;-78
2023/08/27 09:59:24;;;;;;;4.40;2.25;;;;;;;23.65;nan;99927.50;4981375;28;20396;-78
2023/08/27 10:01:50;;;;;;;3.53;2.25;;;;;;;23.67;nan;99940.63;4981938;28;20034;-78
2023/08/27 10:04:17;;;;;;;3.92;1.92;;;;;;;23.66;nan;99937.16;4988574;28;20478;-79
2023/08/27 10:06:42;;;;;;;4.55;2.38;;;;;;;23.66;nan;99931.00;4985447;28;20033;-79
2023/08/27 10:09:08;;;;;;;6.55;2.90;;;;;;;23.66;nan;99923.06;4980989;28;20057;-79
2023/08/27 10:11:33;;;;;;;3.22;2.17;;;;;;;23.66;nan;99915.94;4983246;28;20038;-79
2023/08/27 10:14:00;;;;;;;3.53;2.33;;;;;;;23.67;nan;99917.59;4988020;28;20140;-77
2023/08/27 10:16:28;;;;;;;3.88;3.10;;;;;;;23.50;nan;99921.84;4985873;28;20108;-80
2023/08/27 10:18:53;;;;;;;4.38;3.95;;;;;;;23.21;nan;99914.00;4983521;28;20113;-80
2023/08/27 10:21:19;;;;;;;5.60;3.75;;;;;;;23.06;nan;99902.19;4982192;28;20044;-80
2023/08/27 10:23:44;;;;;;;6.47;3.78;;;;;;;22.84;nan;99900.69;4985561;28;20037;-79
2023/08/27 10:26:10;;;;;;;4.68;3.70;;;;;;;22.97;nan;99914.50;4980588;28;20033;-79
2023/08/27 10:28:36;;;;;;;4.13;3.30;;;;;;;22.83;nan;99917.53;4981579;28;20835;-81
2023/08/27 10:31:05;;;;;;;5.30;3.85;;;;;;;22.78;nan;99919.78;4981778;28;20022;-79
2023/08/27 10:33:31;;;;;;;5.65;3.47;;;;;;;22.83;nan;99919.34;4972902;28;20026;-80
2023/08/27 10:35:59;;;;;;;3.88;3.47;;;;;;;23.02;nan;99917.53;4980174;28;20030;-79
2023/08/27 10:38:28;;;;;;;6.80;3.90;;;;;;;22.92;nan;99902.66;4980880;28;20026;-80
2023/08/27 10:40:54;;;;;;;4.28;3.22;;;;;;;23.07;nan;99898.56;4980847;28;20041;-79
2023/08/27 10:43:21;;;;;;;4.55;3.55;;;;;;;23.00;nan;99900.13;4982762;28;20025;-79
2023/08/27 10:45:50;;;;;;;5.95;3.70;;;;;;;22.91;nan;99898.31;4979003;28;20045;-76
2023/08/27 10:48:15;;;;;;;3.50;3.20;;;;;;;22.64;nan;99904.34;4980202;28;20037;-77
2023/08/27 10:50:47;;;;;;;4.03;3.63;;;;;;;22.36;nan;99901.56;4980932;28;20038;-75
2023/08/27 10:53:13;;;;;;;4.15;3.40;;;;;;;22.60;nan;99906.44;4988303;28;20765;-77
2023/08/27 10:55:40;;;;;;;4.35;3.42;;;;;;;22.71;nan;99905.44;4977225;28;20041;-76
2023/08/27 10:58:16;;;;;;;3.95;3.42;;;;;;;22.75;nan;99906.84;4980433;28;20970;-78
2023/08/27 11:01:04;;;;;;;3.53;3.20;;;;;;;22.60;nan;99916.19;4967940;28;20030;-77
2023/08/27 11:04:05;;;;;;;5.50;3.58;;;;;;;22.83;nan;99909.59;4989784;28;20121;-75
2023/08/27 11:06:40;;;;;;;3.58;3.20;;;;;;;22.67;nan;99906.69;4974162;28;20044;-76
2023/08/27 11:09:48;;;;;;;4.80;3.25;;;;;;;22.45;nan;99902.53;4982029;28;20148;-77
2023/08/27 11:12:28;;;;;;;4.85;3.67;;;;;;;22.37;nan;99905.88;4953201;28;20041;-77
2023/08/27 11:14:54;;;;;;;7.90;4.03;;;;;;;22.48;nan;99907.56;4994556;28;20036;-78
2023/08/27 11:17:25;;;;;;;8.05;4.18;;;;;;;22.47;nan;99917.31;4983006;28;20442;-77
2023/08/27 11:19:51;;;;;;;12.15;5.07;;;;;;;22.40;nan;99910.03;4983677;28;20192;-74
2023/08/27 11:22:22;;;;;;;17.90;5.60;;;;;;;22.33;nan;99923.00;4979665;28;20475;-75
2023/08/27 11:24:48;;;;;;;15.60;5.80;;;;;;;22.45;nan;99918.41;4993018;28;20037;-76
2023/08/27 11:27:19;;;;;;;13.95;6.00;;;;;;;22.37;nan;99916.47;4983210;28;20055;-77
2023/08/27 11:29:48;;;;;;;13.23;5.75;;;;;;;22.32;nan;99908.09;4982028;28;20529;-79
2023/08/27 11:32:14;;;;;;;10.10;5.65;;;;;;;22.35;nan;99912.28;4986949;28;20022;-76
2023/08/27 11:34:43;;;;;;;10.77;5.40;;;;;;;22.33;nan;99909.78;4987408;28;20022;-75
2023/08/27 11:37:08;;;;;;;12.40;5.37;;;;;;;22.32;nan;99912.56;4984545;28;20038;-76
2023/08/27 11:39:35;;;;;;;12.85;4.95;;;;;;;22.49;nan;99918.00;4982883;28;20273;-78
2023/08/27 11:42:00;;;;;;;9.05;4.45;;;;;;;22.67;nan;99919.94;4983567;28;20029;-77
2023/08/27 11:44:26;;;;;;;11.38;5.53;;;;;;;22.61;nan;99929.25;4993706;28;20642;-79
2023/08/27 11:46:51;;;;;;;10.13;5.03;;;;;;;22.49;nan;99915.34;4981550;28;21244;-79